sensor_id;sensor_type;location;lat;lon;timestamp;P1;durP1;ratioP1;P2;durP2;ratioP2
505;SDS011;551;48.524;9.056;2023-12-28T00:02:01;16.80;;;9.23;;
505;SDS011;551;48.524;9.056;2023-12-28T00:04:27;11.07;;;8.43;;
505;SDS011;551;48.524;9.056;2023-12-28T00:06:53;11.63;;;7.57;;
505;SDS011;551;48.524;9.056;2023-12-28T00:09:18;13.30;;;7.97;;
505;SDS011;551;48.524;9.056;2023-12-28T00:11:44;13.17;;;6.83;;
505;SDS011;551;48.524;9.056;2023-12-28T00:14:09;11.47;;;8.00;;
505;SDS011;551;48.524;9.056;2023-12-28T00:16:35;13.97;;;7.83;;
505;SDS011;551;48.524;9.056;2023-12-28T00:19:02;8.80;;;7.57;;
505;SDS011;551;48.524;9.056;2023-12-28T00:21:28;11.17;;;7.17;;
505;SDS011;551;48.524;9.056;2023-12-28T00:23:54;9.13;;;7.10;;
505;SDS011;551;48.524;9.056;2023-12-28T00:26:20;11.17;;;7.33;;
505;SDS011;551;48.524;9.056;2023-12-28T00:28:46;13.90;;;7.40;;
505;SDS011;551;48.524;9.056;2023-12-28T00:31:12;11.43;;;8.63;;
505;SDS011;551;48.524;9.056;2023-12-28T00:33:37;17.13;;;9.60;;
505;SDS011;551;48.524;9.056;2023-12-28T00:36:03;12.67;;;9.53;;
505;SDS011;551;48.524;9.056;2023-12-28T00:38:29;14.33;;;9.43;;
505;SDS011;551;48.524;9.056;2023-12-28T00:40:54;10.63;;;8.30;;
505;SDS011;551;48.524;9.056;2023-12-28T00:43:20;14.47;;;8.97;;
505;SDS011;551;48.524;9.056;2023-12-28T00:45:45;10.93;;;8.30;;
505;SDS011;551;48.524;9.056;2023-12-28T00:48:11;16.37;;;9.07;;
505;SDS011;551;48.524;9.056;2023-12-28T00:50:36;13.63;;;8.93;;
505;SDS011;551;48.524;9.056;2023-12-28T00:53:02;14.13;;;7.80;;
505;SDS011;551;48.524;9.056;2023-12-28T00:55:27;11.07;;;7.47;;
505;SDS011;551;48.524;9.056;2023-12-28T00:57:53;12.20;;;8.00;;
505;SDS011;551;48.524;9.056;2023-12-28T01:00:18;12.30;;;7.87;;
505;SDS011;551;48.524;9.056;2023-12-28T01:02:44;13.03;;;7.40;;
505;SDS011;551;48.524;9.056;2023-12-28T01:05:12;14.53;;;8.10;;
505;SDS011;551;48.524;9.056;2023-12-28T01:07:37;18.40;;;8.50;;
505;SDS011;551;48.524;9.056;2023-12-28T01:10:03;10.17;;;7.30;;
505;SDS011;551;48.524;9.056;2023-12-28T01:12:29;16.77;;;8.27;;
505;SDS011;551;48.524;9.056;2023-12-28T01:14:54;10.37;;;6.33;;
505;SDS011;551;48.524;9.056;2023-12-28T01:17:20;8.53;;;6.10;;
505;SDS011;551;48.524;9.056;2023-12-28T01:19:45;9.90;;;7.00;;
505;SDS011;551;48.524;9.056;2023-12-28T01:22:11;12.40;;;6.13;;
505;SDS011;551;48.524;9.056;2023-12-28T01:24:37;9.10;;;6.10;;
505;SDS011;551;48.524;9.056;2023-12-28T01:27:02;12.47;;;6.53;;
505;SDS011;551;48.524;9.056;2023-12-28T01:29:28;7.97;;;6.00;;
505;SDS011;551;48.524;9.056;2023-12-28T01:31:53;10.73;;;6.50;;
505;SDS011;551;48.524;9.056;2023-12-28T01:34:19;8.90;;;6.60;;
505;SDS011;551;48.524;9.056;2023-12-28T01:36:44;11.43;;;6.83;;
505;SDS011;551;48.524;9.056;2023-12-28T01:39:10;11.60;;;7.40;;
505;SDS011;551;48.524;9.056;2023-12-28T01:41:36;8.27;;;6.00;;
505;SDS011;551;48.524;9.056;2023-12-28T01:44:01;9.40;;;6.13;;
505;SDS011;551;48.524;9.056;2023-12-28T01:46:27;10.23;;;6.43;;
505;SDS011;551;48.524;9.056;2023-12-28T01:48:52;6.60;;;5.50;;
505;SDS011;551;48.524;9.056;2023-12-28T01:51:18;9.07;;;5.87;;
505;SDS011;551;48.524;9.056;2023-12-28T01:53:45;11.43;;;6.23;;
505;SDS011;551;48.524;9.056;2023-12-28T01:56:13;7.00;;;6.00;;
505;SDS011;551;48.524;9.056;2023-12-28T01:58:40;8.87;;;6.13;;
505;SDS011;551;48.524;9.056;2023-12-28T02:01:08;9.60;;;5.60;;
505;SDS011;551;48.524;9.056;2023-12-28T02:03:34;7.70;;;5.27;;
505;SDS011;551;48.524;9.056;2023-12-28T02:06:00;8.40;;;5.20;;
505;SDS011;551;48.524;9.056;2023-12-28T02:08:27;10.03;;;5.90;;
505;SDS011;551;48.524;9.056;2023-12-28T02:10:52;8.97;;;6.17;;
505;SDS011;551;48.524;9.056;2023-12-28T02:13:20;10.53;;;5.60;;
505;SDS011;551;48.524;9.056;2023-12-28T02:15:46;10.37;;;5.97;;
505;SDS011;551;48.524;9.056;2023-12-28T02:18:20;6.80;;;5.20;;
505;SDS011;551;48.524;9.056;2023-12-28T02:20:48;5.33;;;4.83;;
505;SDS011;551;48.524;9.056;2023-12-28T02:23:15;5.47;;;4.10;;
505;SDS011;551;48.524;9.056;2023-12-28T02:25:40;7.20;;;5.30;;
505;SDS011;551;48.524;9.056;2023-12-28T02:28:06;8.20;;;5.37;;
505;SDS011;551;48.524;9.056;2023-12-28T02:30:33;9.83;;;4.70;;
505;SDS011;551;48.524;9.056;2023-12-28T02:36:01;7.00;;;4.33;;
505;SDS011;551;48.524;9.056;2023-12-28T02:38:30;5.37;;;4.20;;
505;SDS011;551;48.524;9.056;2023-12-28T02:40:57;7.03;;;4.60;;
505;SDS011;551;48.524;9.056;2023-12-28T02:43:24;7.33;;;5.30;;
505;SDS011;551;48.524;9.056;2023-12-28T02:45:49;9.57;;;5.33;;
505;SDS011;551;48.524;9.056;2023-12-28T02:48:15;7.90;;;5.90;;
505;SDS011;551;48.524;9.056;2023-12-28T02:50:40;6.10;;;5.20;;
505;SDS011;551;48.524;9.056;2023-12-28T02:53:06;7.30;;;4.37;;
505;SDS011;551;48.524;9.056;2023-12-28T02:55:31;7.37;;;5.57;;
505;SDS011;551;48.524;9.056;2023-12-28T02:57:57;7.53;;;5.87;;
505;SDS011;551;48.524;9.056;2023-12-28T03:00:26;9.00;;;6.27;;
505;SDS011;551;48.524;9.056;2023-12-28T03:02:51;11.30;;;6.10;;
505;SDS011;551;48.524;9.056;2023-12-28T03:05:17;6.63;;;5.63;;
505;SDS011;551;48.524;9.056;2023-12-28T03:07:43;8.20;;;4.70;;
505;SDS011;551;48.524;9.056;2023-12-28T03:10:09;9.20;;;6.80;;
505;SDS011;551;48.524;9.056;2023-12-28T03:12:36;9.40;;;5.87;;
505;SDS011;551;48.524;9.056;2023-12-28T03:15:02;8.50;;;5.63;;
505;SDS011;551;48.524;9.056;2023-12-28T03:17:28;7.30;;;5.30;;
505;SDS011;551;48.524;9.056;2023-12-28T03:19:55;6.03;;;4.67;;
505;SDS011;551;48.524;9.056;2023-12-28T03:22:21;8.87;;;5.73;;
505;SDS011;551;48.524;9.056;2023-12-28T03:24:46;6.40;;;5.40;;
505;SDS011;551;48.524;9.056;2023-12-28T03:27:12;7.63;;;5.83;;
505;SDS011;551;48.524;9.056;2023-12-28T03:29:37;11.47;;;5.20;;
505;SDS011;551;48.524;9.056;2023-12-28T03:32:03;10.00;;;6.33;;
505;SDS011;551;48.524;9.056;2023-12-28T03:34:29;7.57;;;5.23;;
505;SDS011;551;48.524;9.056;2023-12-28T03:36:55;6.13;;;5.53;;
505;SDS011;551;48.524;9.056;2023-12-28T03:39:22;7.50;;;5.47;;
505;SDS011;551;48.524;9.056;2023-12-28T03:41:48;9.07;;;5.37;;
505;SDS011;551;48.524;9.056;2023-12-28T03:44:13;10.10;;;6.00;;
505;SDS011;551;48.524;9.056;2023-12-28T03:46:39;10.40;;;5.70;;
505;SDS011;551;48.524;9.056;2023-12-28T03:49:04;9.07;;;6.27;;
505;SDS011;551;48.524;9.056;2023-12-28T03:51:30;7.57;;;5.83;;
505;SDS011;551;48.524;9.056;2023-12-28T03:53:55;7.87;;;6.20;;
505;SDS011;551;48.524;9.056;2023-12-28T03:56:24;12.17;;;5.93;;
505;SDS011;551;48.524;9.056;2023-12-28T03:58:51;10.43;;;6.00;;
505;SDS011;551;48.524;9.056;2023-12-28T04:01:17;7.70;;;5.40;;
505;SDS011;551;48.524;9.056;2023-12-28T04:03:44;6.77;;;5.40;;
505;SDS011;551;48.524;9.056;2023-12-28T04:06:10;11.10;;;5.80;;
505;SDS011;551;48.524;9.056;2023-12-28T04:08:36;5.97;;;5.33;;
505;SDS011;551;48.524;9.056;2023-12-28T04:11:01;12.83;;;6.77;;
505;SDS011;551;48.524;9.056;2023-12-28T04:13:27;10.30;;;6.57;;
505;SDS011;551;48.524;9.056;2023-12-28T04:15:52;11.50;;;8.37;;
505;SDS011;551;48.524;9.056;2023-12-28T04:18:18;9.03;;;6.70;;
505;SDS011;551;48.524;9.056;2023-12-28T04:20:43;10.53;;;6.47;;
505;SDS011;551;48.524;9.056;2023-12-28T04:23:11;9.70;;;6.63;;
505;SDS011;551;48.524;9.056;2023-12-28T04:25:37;8.13;;;6.10;;
505;SDS011;551;48.524;9.056;2023-12-28T04:28:03;8.13;;;6.30;;
505;SDS011;551;48.524;9.056;2023-12-28T04:30:28;9.50;;;6.07;;
505;SDS011;551;48.524;9.056;2023-12-28T04:32:54;10.50;;;6.83;;
505;SDS011;551;48.524;9.056;2023-12-28T04:35:19;9.40;;;6.00;;
505;SDS011;551;48.524;9.056;2023-12-28T04:37:45;10.33;;;5.90;;
505;SDS011;551;48.524;9.056;2023-12-28T04:40:10;7.00;;;5.60;;
505;SDS011;551;48.524;9.056;2023-12-28T04:42:36;12.53;;;6.60;;
505;SDS011;551;48.524;9.056;2023-12-28T04:45:01;9.70;;;5.70;;
505;SDS011;551;48.524;9.056;2023-12-28T04:47:27;9.60;;;6.27;;
505;SDS011;551;48.524;9.056;2023-12-28T04:49:52;8.87;;;5.40;;
505;SDS011;551;48.524;9.056;2023-12-28T04:52:18;7.67;;;5.50;;
505;SDS011;551;48.524;9.056;2023-12-28T04:54:43;11.70;;;5.67;;
505;SDS011;551;48.524;9.056;2023-12-28T04:57:09;6.60;;;5.40;;
505;SDS011;551;48.524;9.056;2023-12-28T04:59:41;7.87;;;4.83;;
505;SDS011;551;48.524;9.056;2023-12-28T05:02:07;9.47;;;5.17;;
505;SDS011;551;48.524;9.056;2023-12-28T05:04:33;5.77;;;5.13;;
505;SDS011;551;48.524;9.056;2023-12-28T05:07:01;7.97;;;5.47;;
505;SDS011;551;48.524;9.056;2023-12-28T05:09:27;11.00;;;5.63;;
505;SDS011;551;48.524;9.056;2023-12-28T05:11:52;7.60;;;5.23;;
505;SDS011;551;48.524;9.056;2023-12-28T05:14:18;5.73;;;5.23;;
505;SDS011;551;48.524;9.056;2023-12-28T05:16:43;9.30;;;5.80;;
505;SDS011;551;48.524;9.056;2023-12-28T05:19:09;7.20;;;5.20;;
505;SDS011;551;48.524;9.056;2023-12-28T05:21:34;6.77;;;4.50;;
505;SDS011;551;48.524;9.056;2023-12-28T05:23:59;5.87;;;4.93;;
505;SDS011;551;48.524;9.056;2023-12-28T05:26:25;9.67;;;5.93;;
505;SDS011;551;48.524;9.056;2023-12-28T05:28:51;4.00;;;3.60;;
505;SDS011;551;48.524;9.056;2023-12-28T05:31:16;7.23;;;4.77;;
505;SDS011;551;48.524;9.056;2023-12-28T05:33:42;6.10;;;4.17;;
505;SDS011;551;48.524;9.056;2023-12-28T05:36:07;6.30;;;4.73;;
505;SDS011;551;48.524;9.056;2023-12-28T05:38:33;8.73;;;4.73;;
505;SDS011;551;48.524;9.056;2023-12-28T05:40:59;10.33;;;4.83;;
505;SDS011;551;48.524;9.056;2023-12-28T05:43:25;5.13;;;4.63;;
505;SDS011;551;48.524;9.056;2023-12-28T05:45:50;7.40;;;5.20;;
505;SDS011;551;48.524;9.056;2023-12-28T05:48:16;9.90;;;5.40;;
505;SDS011;551;48.524;9.056;2023-12-28T05:50:41;5.37;;;4.50;;
505;SDS011;551;48.524;9.056;2023-12-28T05:53:07;8.70;;;4.83;;
505;SDS011;551;48.524;9.056;2023-12-28T05:55:36;5.40;;;4.50;;
505;SDS011;551;48.524;9.056;2023-12-28T05:58:02;8.93;;;4.60;;
505;SDS011;551;48.524;9.056;2023-12-28T06:00:27;7.67;;;4.40;;
505;SDS011;551;48.524;9.056;2023-12-28T06:02:53;6.47;;;3.80;;
505;SDS011;551;48.524;9.056;2023-12-28T06:05:18;10.30;;;5.10;;
505;SDS011;551;48.524;9.056;2023-12-28T06:07:44;5.40;;;4.40;;
505;SDS011;551;48.524;9.056;2023-12-28T06:10:10;5.70;;;3.93;;
505;SDS011;551;48.524;9.056;2023-12-28T06:12:35;5.10;;;4.40;;
505;SDS011;551;48.524;9.056;2023-12-28T06:15:01;5.10;;;4.70;;
505;SDS011;551;48.524;9.056;2023-12-28T06:17:28;10.50;;;5.17;;
505;SDS011;551;48.524;9.056;2023-12-28T06:19:53;7.93;;;5.47;;
505;SDS011;551;48.524;9.056;2023-12-28T06:22:19;7.27;;;4.50;;
505;SDS011;551;48.524;9.056;2023-12-28T06:24:45;6.70;;;4.20;;
505;SDS011;551;48.524;9.056;2023-12-28T06:27:11;5.90;;;4.30;;
505;SDS011;551;48.524;9.056;2023-12-28T06:29:36;7.13;;;4.60;;
505;SDS011;551;48.524;9.056;2023-12-28T06:32:02;4.63;;;4.23;;
505;SDS011;551;48.524;9.056;2023-12-28T06:34:28;6.47;;;4.80;;
505;SDS011;551;48.524;9.056;2023-12-28T06:36:53;9.30;;;4.17;;
505;SDS011;551;48.524;9.056;2023-12-28T06:39:19;7.40;;;4.67;;
505;SDS011;551;48.524;9.056;2023-12-28T06:41:48;7.10;;;5.40;;
505;SDS011;551;48.524;9.056;2023-12-28T06:44:14;7.83;;;4.80;;
505;SDS011;551;48.524;9.056;2023-12-28T06:46:40;8.27;;;5.80;;
505;SDS011;551;48.524;9.056;2023-12-28T06:49:06;6.67;;;5.63;;
505;SDS011;551;48.524;9.056;2023-12-28T06:51:31;13.30;;;6.50;;
505;SDS011;551;48.524;9.056;2023-12-28T06:53:57;10.70;;;6.77;;
505;SDS011;551;48.524;9.056;2023-12-28T06:56:24;7.17;;;5.87;;
505;SDS011;551;48.524;9.056;2023-12-28T06:58:49;9.10;;;5.83;;
505;SDS011;551;48.524;9.056;2023-12-28T07:01:15;7.53;;;5.37;;
505;SDS011;551;48.524;9.056;2023-12-28T07:03:40;11.93;;;5.93;;
505;SDS011;551;48.524;9.056;2023-12-28T07:06:06;10.23;;;5.40;;
505;SDS011;551;48.524;9.056;2023-12-28T07:08:31;9.77;;;6.00;;
505;SDS011;551;48.524;9.056;2023-12-28T07:10:57;10.97;;;5.73;;
505;SDS011;551;48.524;9.056;2023-12-28T07:13:23;9.10;;;5.37;;
505;SDS011;551;48.524;9.056;2023-12-28T07:15:48;5.80;;;4.93;;
505;SDS011;551;48.524;9.056;2023-12-28T07:18:14;8.23;;;5.57;;
505;SDS011;551;48.524;9.056;2023-12-28T07:20:39;5.20;;;4.27;;
505;SDS011;551;48.524;9.056;2023-12-28T07:23:05;8.73;;;4.50;;
505;SDS011;551;48.524;9.056;2023-12-28T07:25:30;5.60;;;3.90;;
505;SDS011;551;48.524;9.056;2023-12-28T07:27:56;7.73;;;4.97;;
505;SDS011;551;48.524;9.056;2023-12-28T07:30:21;6.60;;;4.30;;
505;SDS011;551;48.524;9.056;2023-12-28T07:32:47;7.47;;;5.40;;
505;SDS011;551;48.524;9.056;2023-12-28T07:35:12;10.27;;;5.00;;
505;SDS011;551;48.524;9.056;2023-12-28T07:37:38;9.03;;;4.97;;
505;SDS011;551;48.524;9.056;2023-12-28T07:40:04;8.83;;;4.33;;
505;SDS011;551;48.524;9.056;2023-12-28T07:42:30;5.97;;;4.60;;
505;SDS011;551;48.524;9.056;2023-12-28T07:44:55;13.33;;;5.10;;
505;SDS011;551;48.524;9.056;2023-12-28T07:47:21;7.53;;;4.80;;
505;SDS011;551;48.524;9.056;2023-12-28T07:49:46;8.30;;;4.63;;
505;SDS011;551;48.524;9.056;2023-12-28T07:52:12;10.70;;;4.63;;
505;SDS011;551;48.524;9.056;2023-12-28T07:54:37;12.10;;;6.50;;
505;SDS011;551;48.524;9.056;2023-12-28T07:57:03;9.73;;;5.47;;
505;SDS011;551;48.524;9.056;2023-12-28T07:59:29;10.30;;;5.53;;
505;SDS011;551;48.524;9.056;2023-12-28T08:01:55;12.97;;;8.33;;
505;SDS011;551;48.524;9.056;2023-12-28T08:04:21;17.33;;;8.83;;
505;SDS011;551;48.524;9.056;2023-12-28T08:06:49;19.70;;;10.13;;
505;SDS011;551;48.524;9.056;2023-12-28T08:09:15;12.10;;;7.63;;
505;SDS011;551;48.524;9.056;2023-12-28T08:11:40;15.00;;;9.70;;
505;SDS011;551;48.524;9.056;2023-12-28T08:14:06;23.27;;;10.50;;
505;SDS011;551;48.524;9.056;2023-12-28T08:16:32;19.83;;;10.63;;
505;SDS011;551;48.524;9.056;2023-12-28T08:18:59;18.00;;;9.40;;
505;SDS011;551;48.524;9.056;2023-12-28T08:21:25;13.50;;;9.00;;
505;SDS011;551;48.524;9.056;2023-12-28T08:23:51;21.50;;;12.70;;
505;SDS011;551;48.524;9.056;2023-12-28T08:26:16;21.20;;;14.37;;
505;SDS011;551;48.524;9.056;2023-12-28T08:28:42;20.30;;;12.00;;
505;SDS011;551;48.524;9.056;2023-12-28T08:31:08;13.37;;;8.20;;
505;SDS011;551;48.524;9.056;2023-12-28T08:33:34;10.23;;;8.00;;
505;SDS011;551;48.524;9.056;2023-12-28T08:36:02;8.57;;;6.00;;
505;SDS011;551;48.524;9.056;2023-12-28T08:38:29;7.00;;;5.33;;
505;SDS011;551;48.524;9.056;2023-12-28T08:40:54;8.33;;;5.40;;
505;SDS011;551;48.524;9.056;2023-12-28T08:43:20;7.60;;;5.33;;
505;SDS011;551;48.524;9.056;2023-12-28T08:45:45;6.90;;;6.20;;
505;SDS011;551;48.524;9.056;2023-12-28T08:48:11;5.97;;;5.30;;
505;SDS011;551;48.524;9.056;2023-12-28T08:50:36;8.23;;;5.83;;
505;SDS011;551;48.524;9.056;2023-12-28T08:53:02;9.23;;;5.50;;
505;SDS011;551;48.524;9.056;2023-12-28T08:55:27;6.50;;;5.37;;
505;SDS011;551;48.524;9.056;2023-12-28T08:57:53;9.33;;;5.67;;
505;SDS011;551;48.524;9.056;2023-12-28T09:00:18;9.97;;;5.23;;
505;SDS011;551;48.524;9.056;2023-12-28T09:02:44;9.77;;;6.13;;
505;SDS011;551;48.524;9.056;2023-12-28T09:05:09;8.13;;;5.70;;
505;SDS011;551;48.524;9.056;2023-12-28T09:07:35;7.80;;;5.30;;
505;SDS011;551;48.524;9.056;2023-12-28T09:10:03;7.97;;;6.10;;
505;SDS011;551;48.524;9.056;2023-12-28T09:12:29;11.23;;;4.80;;
505;SDS011;551;48.524;9.056;2023-12-28T09:14:55;7.13;;;5.53;;
505;SDS011;551;48.524;9.056;2023-12-28T09:17:21;8.10;;;6.30;;
505;SDS011;551;48.524;9.056;2023-12-28T09:19:47;10.63;;;5.67;;
505;SDS011;551;48.524;9.056;2023-12-28T09:22:12;8.50;;;5.23;;
505;SDS011;551;48.524;9.056;2023-12-28T09:24:38;9.73;;;5.90;;
505;SDS011;551;48.524;9.056;2023-12-28T09:27:03;7.00;;;6.30;;
505;SDS011;551;48.524;9.056;2023-12-28T09:29:29;8.43;;;5.63;;
505;SDS011;551;48.524;9.056;2023-12-28T09:31:55;13.43;;;6.30;;
505;SDS011;551;48.524;9.056;2023-12-28T09:34:20;10.20;;;5.63;;
505;SDS011;551;48.524;9.056;2023-12-28T09:36:46;11.80;;;6.50;;
505;SDS011;551;48.524;9.056;2023-12-28T09:39:11;8.80;;;5.60;;
505;SDS011;551;48.524;9.056;2023-12-28T09:41:39;7.80;;;5.00;;
505;SDS011;551;48.524;9.056;2023-12-28T09:44:08;7.00;;;5.30;;
505;SDS011;551;48.524;9.056;2023-12-28T09:46:37;8.83;;;6.30;;
505;SDS011;551;48.524;9.056;2023-12-28T09:49:06;13.23;;;6.03;;
505;SDS011;551;48.524;9.056;2023-12-28T09:51:32;12.07;;;6.80;;
505;SDS011;551;48.524;9.056;2023-12-28T09:53:58;13.30;;;6.70;;
505;SDS011;551;48.524;9.056;2023-12-28T09:56:23;8.60;;;6.17;;
505;SDS011;551;48.524;9.056;2023-12-28T09:58:50;9.43;;;6.43;;
505;SDS011;551;48.524;9.056;2023-12-28T10:01:17;14.60;;;7.27;;
505;SDS011;551;48.524;9.056;2023-12-28T10:03:43;13.67;;;7.83;;
505;SDS011;551;48.524;9.056;2023-12-28T10:06:09;9.90;;;7.07;;
505;SDS011;551;48.524;9.056;2023-12-28T10:08:34;17.27;;;10.77;;
505;SDS011;551;48.524;9.056;2023-12-28T10:11:01;9.80;;;7.17;;
505;SDS011;551;48.524;9.056;2023-12-28T10:13:27;11.70;;;6.80;;
505;SDS011;551;48.524;9.056;2023-12-28T10:15:57;12.17;;;7.00;;
505;SDS011;551;48.524;9.056;2023-12-28T10:18:24;7.47;;;6.00;;
505;SDS011;551;48.524;9.056;2023-12-28T10:20:50;9.57;;;7.43;;
505;SDS011;551;48.524;9.056;2023-12-28T10:23:17;9.53;;;7.07;;
505;SDS011;551;48.524;9.056;2023-12-28T10:25:43;9.40;;;6.33;;
505;SDS011;551;48.524;9.056;2023-12-28T10:28:10;11.10;;;7.07;;
505;SDS011;551;48.524;9.056;2023-12-28T10:30:37;8.57;;;5.83;;
505;SDS011;551;48.524;9.056;2023-12-28T10:33:06;5.23;;;4.30;;
505;SDS011;551;48.524;9.056;2023-12-28T10:35:32;5.40;;;4.17;;
505;SDS011;551;48.524;9.056;2023-12-28T10:37:59;4.77;;;4.30;;
505;SDS011;551;48.524;9.056;2023-12-28T10:40:25;8.83;;;4.83;;
505;SDS011;551;48.524;9.056;2023-12-28T10:42:54;7.60;;;5.13;;
505;SDS011;551;48.524;9.056;2023-12-28T10:45:26;5.13;;;4.10;;
505;SDS011;551;48.524;9.056;2023-12-28T10:48:10;4.97;;;3.50;;
505;SDS011;551;48.524;9.056;2023-12-28T10:50:40;7.20;;;4.73;;
505;SDS011;551;48.524;9.056;2023-12-28T11:01:37;8.73;;;4.60;;
505;SDS011;551;48.524;9.056;2023-12-28T11:04:07;5.80;;;5.00;;
505;SDS011;551;48.524;9.056;2023-12-28T11:06:39;5.00;;;4.03;;
505;SDS011;551;48.524;9.056;2023-12-28T11:09:07;6.93;;;4.80;;
505;SDS011;551;48.524;9.056;2023-12-28T11:11:34;4.63;;;3.60;;
505;SDS011;551;48.524;9.056;2023-12-28T11:14:00;9.13;;;5.17;;
505;SDS011;551;48.524;9.056;2023-12-28T11:16:27;7.50;;;5.00;;
505;SDS011;551;48.524;9.056;2023-12-28T11:18:54;11.53;;;5.67;;
505;SDS011;551;48.524;9.056;2023-12-28T11:21:20;7.50;;;5.80;;
505;SDS011;551;48.524;9.056;2023-12-28T11:23:50;7.40;;;4.80;;
505;SDS011;551;48.524;9.056;2023-12-28T11:26:16;6.27;;;4.33;;
505;SDS011;551;48.524;9.056;2023-12-28T11:28:43;5.73;;;4.50;;
505;SDS011;551;48.524;9.056;2023-12-28T11:31:15;9.43;;;5.57;;
505;SDS011;551;48.524;9.056;2023-12-28T11:33:43;6.93;;;5.17;;
505;SDS011;551;48.524;9.056;2023-12-28T11:36:10;7.60;;;5.33;;
505;SDS011;551;48.524;9.056;2023-12-28T11:38:36;7.23;;;4.90;;
505;SDS011;551;48.524;9.056;2023-12-28T11:41:04;13.40;;;6.00;;
505;SDS011;551;48.524;9.056;2023-12-28T11:43:29;8.30;;;5.43;;
505;SDS011;551;48.524;9.056;2023-12-28T11:46:00;8.73;;;5.50;;
505;SDS011;551;48.524;9.056;2023-12-28T11:48:26;7.33;;;6.60;;
505;SDS011;551;48.524;9.056;2023-12-28T11:51:02;8.60;;;5.93;;
505;SDS011;551;48.524;9.056;2023-12-28T11:53:28;9.07;;;5.60;;
505;SDS011;551;48.524;9.056;2023-12-28T11:55:59;8.73;;;5.63;;
505;SDS011;551;48.524;9.056;2023-12-28T11:58:28;7.10;;;5.70;;
505;SDS011;551;48.524;9.056;2023-12-28T12:00:53;8.53;;;5.87;;
505;SDS011;551;48.524;9.056;2023-12-28T12:03:19;8.10;;;5.77;;
505;SDS011;551;48.524;9.056;2023-12-28T12:05:44;7.03;;;4.73;;
505;SDS011;551;48.524;9.056;2023-12-28T12:08:10;7.13;;;5.53;;
505;SDS011;551;48.524;9.056;2023-12-28T12:10:39;11.93;;;5.93;;
505;SDS011;551;48.524;9.056;2023-12-28T12:13:05;7.60;;;5.00;;
505;SDS011;551;48.524;9.056;2023-12-28T12:15:31;11.40;;;4.57;;
505;SDS011;551;48.524;9.056;2023-12-28T12:17:57;6.20;;;4.00;;
505;SDS011;551;48.524;9.056;2023-12-28T12:20:23;5.70;;;3.77;;
505;SDS011;551;48.524;9.056;2023-12-28T12:22:49;5.67;;;3.67;;
505;SDS011;551;48.524;9.056;2023-12-28T12:25:14;5.57;;;3.67;;
505;SDS011;551;48.524;9.056;2023-12-28T12:27:44;3.73;;;3.20;;
505;SDS011;551;48.524;9.056;2023-12-28T12:30:10;2.90;;;2.47;;
505;SDS011;551;48.524;9.056;2023-12-28T12:32:36;4.10;;;2.60;;
505;SDS011;551;48.524;9.056;2023-12-28T12:35:04;5.50;;;2.80;;
505;SDS011;551;48.524;9.056;2023-12-28T12:37:30;7.30;;;4.27;;
505;SDS011;551;48.524;9.056;2023-12-28T12:39:55;7.70;;;5.30;;
505;SDS011;551;48.524;9.056;2023-12-28T12:42:21;6.67;;;5.13;;
505;SDS011;551;48.524;9.056;2023-12-28T12:44:47;7.17;;;5.47;;
505;SDS011;551;48.524;9.056;2023-12-28T12:47:12;7.97;;;7.13;;
505;SDS011;551;48.524;9.056;2023-12-28T12:49:38;5.87;;;4.77;;
505;SDS011;551;48.524;9.056;2023-12-28T12:52:03;7.10;;;5.50;;
505;SDS011;551;48.524;9.056;2023-12-28T12:54:32;6.80;;;6.00;;
505;SDS011;551;48.524;9.056;2023-12-28T12:56:57;9.30;;;6.30;;
505;SDS011;551;48.524;9.056;2023-12-28T12:59:23;6.10;;;4.93;;
505;SDS011;551;48.524;9.056;2023-12-28T13:01:50;6.40;;;4.27;;
505;SDS011;551;48.524;9.056;2023-12-28T13:04:18;5.03;;;4.50;;
505;SDS011;551;48.524;9.056;2023-12-28T13:06:44;2.97;;;2.67;;
505;SDS011;551;48.524;9.056;2023-12-28T13:09:10;2.93;;;2.43;;
505;SDS011;551;48.524;9.056;2023-12-28T13:11:38;3.30;;;2.00;;
505;SDS011;551;48.524;9.056;2023-12-28T13:14:04;2.93;;;1.60;;
505;SDS011;551;48.524;9.056;2023-12-28T13:16:29;1.40;;;1.27;;
505;SDS011;551;48.524;9.056;2023-12-28T13:18:55;2.00;;;1.80;;
505;SDS011;551;48.524;9.056;2023-12-28T13:21:21;2.63;;;1.93;;
505;SDS011;551;48.524;9.056;2023-12-28T13:23:46;1.80;;;1.70;;
505;SDS011;551;48.524;9.056;2023-12-28T13:26:12;1.80;;;1.70;;
505;SDS011;551;48.524;9.056;2023-12-28T13:28:37;3.10;;;2.10;;
505;SDS011;551;48.524;9.056;2023-12-28T13:31:03;2.30;;;2.10;;
505;SDS011;551;48.524;9.056;2023-12-28T13:33:28;2.40;;;2.20;;
505;SDS011;551;48.524;9.056;2023-12-28T13:35:54;2.40;;;2.20;;
505;SDS011;551;48.524;9.056;2023-12-28T13:38:20;3.13;;;2.60;;
505;SDS011;551;48.524;9.056;2023-12-28T13:40:46;2.77;;;2.37;;
505;SDS011;551;48.524;9.056;2023-12-28T13:43:12;7.50;;;2.50;;
505;SDS011;551;48.524;9.056;2023-12-28T13:45:37;4.23;;;2.37;;
505;SDS011;551;48.524;9.056;2023-12-28T13:48:02;5.07;;;2.50;;
505;SDS011;551;48.524;9.056;2023-12-28T13:50:28;6.00;;;2.60;;
505;SDS011;551;48.524;9.056;2023-12-28T13:52:54;5.03;;;2.60;;
505;SDS011;551;48.524;9.056;2023-12-28T13:55:19;3.80;;;2.80;;
505;SDS011;551;48.524;9.056;2023-12-28T13:57:45;6.90;;;2.93;;
505;SDS011;551;48.524;9.056;2023-12-28T14:00:11;8.40;;;4.33;;
505;SDS011;551;48.524;9.056;2023-12-28T14:02:37;6.23;;;4.37;;
505;SDS011;551;48.524;9.056;2023-12-28T14:05:02;5.67;;;3.60;;
505;SDS011;551;48.524;9.056;2023-12-28T14:07:28;4.27;;;3.87;;
505;SDS011;551;48.524;9.056;2023-12-28T14:09:53;6.30;;;4.40;;
505;SDS011;551;48.524;9.056;2023-12-28T14:12:19;7.13;;;4.17;;
505;SDS011;551;48.524;9.056;2023-12-28T14:14:44;4.37;;;3.70;;
505;SDS011;551;48.524;9.056;2023-12-28T14:17:10;6.40;;;3.67;;
505;SDS011;551;48.524;9.056;2023-12-28T14:19:35;4.20;;;3.60;;
505;SDS011;551;48.524;9.056;2023-12-28T14:22:01;5.13;;;3.40;;
505;SDS011;551;48.524;9.056;2023-12-28T14:24:27;5.93;;;3.17;;
505;SDS011;551;48.524;9.056;2023-12-28T14:26:53;5.33;;;3.60;;
505;SDS011;551;48.524;9.056;2023-12-28T14:29:19;8.10;;;4.80;;
505;SDS011;551;48.524;9.056;2023-12-28T14:31:45;8.70;;;5.47;;
505;SDS011;551;48.524;9.056;2023-12-28T14:34:12;9.27;;;5.60;;
505;SDS011;551;48.524;9.056;2023-12-28T14:36:38;9.50;;;5.90;;
505;SDS011;551;48.524;9.056;2023-12-28T14:39:04;9.13;;;5.50;;
505;SDS011;551;48.524;9.056;2023-12-28T14:41:32;7.93;;;4.73;;
505;SDS011;551;48.524;9.056;2023-12-28T14:44:01;9.03;;;5.27;;
505;SDS011;551;48.524;9.056;2023-12-28T14:46:27;9.17;;;4.53;;
505;SDS011;551;48.524;9.056;2023-12-28T14:48:53;5.53;;;3.50;;
505;SDS011;551;48.524;9.056;2023-12-28T14:51:20;5.83;;;4.00;;
505;SDS011;551;48.524;9.056;2023-12-28T14:53:45;5.70;;;4.20;;
505;SDS011;551;48.524;9.056;2023-12-28T14:56:11;6.17;;;4.57;;
505;SDS011;551;48.524;9.056;2023-12-28T14:58:37;5.53;;;5.03;;
505;SDS011;551;48.524;9.056;2023-12-28T15:01:03;5.63;;;5.07;;
505;SDS011;551;48.524;9.056;2023-12-28T15:03:28;4.97;;;4.57;;
505;SDS011;551;48.524;9.056;2023-12-28T15:05:54;7.90;;;6.50;;
505;SDS011;551;48.524;9.056;2023-12-28T15:08:21;11.83;;;8.00;;
505;SDS011;551;48.524;9.056;2023-12-28T15:10:48;9.83;;;7.53;;
505;SDS011;551;48.524;9.056;2023-12-28T15:13:14;8.70;;;6.87;;
505;SDS011;551;48.524;9.056;2023-12-28T15:15:39;10.87;;;7.70;;
505;SDS011;551;48.524;9.056;2023-12-28T15:18:05;10.73;;;7.20;;
505;SDS011;551;48.524;9.056;2023-12-28T15:20:31;10.47;;;7.03;;
505;SDS011;551;48.524;9.056;2023-12-28T15:22:57;7.13;;;6.20;;
505;SDS011;551;48.524;9.056;2023-12-28T15:25:23;9.80;;;6.63;;
505;SDS011;551;48.524;9.056;2023-12-28T15:27:48;13.73;;;6.67;;
505;SDS011;551;48.524;9.056;2023-12-28T15:30:14;10.53;;;6.00;;
505;SDS011;551;48.524;9.056;2023-12-28T15:32:39;9.73;;;6.00;;
505;SDS011;551;48.524;9.056;2023-12-28T15:35:06;7.00;;;5.30;;
505;SDS011;551;48.524;9.056;2023-12-28T15:37:33;9.73;;;5.47;;
505;SDS011;551;48.524;9.056;2023-12-28T15:39:58;8.80;;;5.43;;
505;SDS011;551;48.524;9.056;2023-12-28T15:42:23;10.43;;;6.60;;
505;SDS011;551;48.524;9.056;2023-12-28T15:44:49;9.80;;;5.73;;